Time;durP1;ratioP1;P1;durP2;ratioP2;P2;SDS_P1;SDS_P2;PMS_P1;PMS_P2;Temp;Humidity;BMP_temperature;BMP_pressure;BME280_temperature;BME280_humidity;BME280_pressure;Samples;Min_cycle;Max_cycle;Signal;HPM_P1;HPM_P2
2022/03/06 00:01:22;;;;;;;29.58;18.40;;;0.10;99.90;;;;;;4936490;28;20038;-83
2022/03/06 00:03:48;;;;;;;30.63;19.45;;;0.00;99.90;;;;;;4941325;28;266918;-83
2022/03/06 00:06:15;;;;;;;32.22;18.95;;;0.00;99.90;;;;;;4930997;28;20055;-82
2022/03/06 00:08:41;;;;;;;30.50;19.25;;;0.00;99.90;;;;;;4968223;28;20054;-83
2022/03/06 00:11:08;;;;;;;31.45;19.70;;;0.00;99.90;;;;;;4912689;28;147625;-84
2022/03/06 00:13:35;;;;;;;28.63;18.77;;;0.00;99.90;;;;;;4965045;28;20461;-83
2022/03/06 00:16:01;;;;;;;30.42;19.35;;;0.00;99.90;;;;;;4944212;28;133090;-82
2022/03/06 00:18:27;;;;;;;32.47;20.52;;;0.00;99.90;;;;;;4970309;28;20059;-82
2022/03/06 00:20:54;;;;;;;29.17;19.45;;;0.00;99.90;;;;;;4910832;28;148068;-82
2022/03/06 00:23:21;;;;;;;32.42;19.83;;;0.00;99.90;;;;;;4964246;28;20047;-82
2022/03/06 00:25:49;;;;;;;33.58;20.02;;;0.10;99.90;;;;;;4943044;28;133850;-83
2022/03/06 00:28:15;;;;;;;29.83;19.65;;;0.10;99.90;;;;;;4980623;28;20058;-83
2022/03/06 00:30:42;;;;;;;32.40;20.33;;;0.20;99.90;;;;;;4939201;28;255722;-82
2022/03/06 00:33:08;;;;;;;29.70;19.02;;;0.20;99.90;;;;;;4971991;28;20081;-82
2022/03/06 00:35:34;;;;;;;30.50;18.75;;;0.30;99.90;;;;;;4942346;28;87058;-83
2022/03/06 00:38:00;;;;;;;30.65;19.23;;;0.30;99.90;;;;;;4967451;28;20069;-84
2022/03/06 00:40:26;;;;;;;32.10;19.13;;;0.40;99.90;;;;;;4931784;28;174717;-83
2022/03/06 00:42:52;;;;;;;26.02;18.35;;;0.50;99.90;;;;;;4967677;28;20061;-83
2022/03/06 00:45:19;;;;;;;27.50;17.88;;;0.50;99.90;;;;;;4936443;28;58320;-85
2022/03/06 00:47:45;;;;;;;31.15;19.48;;;0.60;99.90;;;;;;4973333;28;20058;-82
2022/03/06 00:50:11;;;;;;;29.70;18.27;;;0.60;99.90;;;;;;4929817;28;47396;-83
2022/03/06 00:52:39;;;;;;;28.75;18.80;;;0.70;99.90;;;;;;4978754;28;20058;-84
2022/03/06 00:55:06;;;;;;;27.17;17.55;;;0.70;99.90;;;;;;4934899;28;85301;-83
2022/03/06 00:57:32;;;;;;;25.08;17.33;;;0.70;99.90;;;;;;4950096;28;20062;-84
2022/03/06 00:59:59;;;;;;;25.98;17.20;;;0.70;99.90;;;;;;4940589;28;138773;-84
2022/03/06 01:02:26;;;;;;;29.70;17.52;;;0.70;99.90;;;;;;4984888;28;20046;-86
2022/03/06 01:04:52;;;;;;;24.90;16.45;;;0.80;99.90;;;;;;4924383;28;72521;-86
2022/03/06 01:07:18;;;;;;;23.67;16.45;;;0.80;99.90;;;;;;4981789;28;20039;-84
2022/03/06 01:09:45;;;;;;;26.50;17.13;;;0.90;99.90;;;;;;4954439;28;134942;-84
2022/03/06 01:12:12;;;;;;;24.40;15.70;;;0.90;99.90;;;;;;4973440;28;20131;-84
2022/03/06 01:14:38;;;;;;;26.77;15.75;;;0.90;99.90;;;;;;4956660;28;51478;-84
2022/03/06 01:17:05;;;;;;;29.23;16.83;;;0.90;99.90;;;;;;4967779;28;20043;-84
2022/03/06 01:19:34;;;;;;;28.98;17.23;;;1.00;99.90;;;;;;4946907;28;247387;-84
2022/03/06 01:22:00;;;;;;;30.45;17.02;;;1.00;99.90;;;;;;4977679;28;20053;-84
2022/03/06 01:24:27;;;;;;;26.58;15.68;;;1.00;99.90;;;;;;4939066;28;185922;-84
2022/03/06 01:26:53;;;;;;;22.92;15.07;;;1.00;99.90;;;;;;4981838;28;20559;-83
2022/03/06 01:29:22;;;;;;;21.73;14.20;;;1.00;99.90;;;;;;4932707;28;110611;-84
2022/03/06 01:31:49;;;;;;;24.38;14.10;;;1.00;99.90;;;;;;4965718;28;20054;-84
2022/03/06 01:34:15;;;;;;;21.27;13.73;;;1.00;99.90;;;;;;4946336;28;224416;-84
2022/03/06 01:36:41;;;;;;;22.92;13.57;;;1.00;99.90;;;;;;4930588;28;20039;-84
2022/03/06 01:39:08;;;;;;;22.27;13.10;;;1.00;99.90;;;;;;4955810;28;260086;-84
2022/03/06 01:41:35;;;;;;;20.77;12.85;;;1.10;99.90;;;;;;4935325;28;20034;-84
2022/03/06 01:44:03;;;;;;;21.42;12.15;;;1.00;99.90;;;;;;4965784;28;248918;-84
2022/03/06 01:46:29;;;;;;;23.35;13.13;;;1.10;99.90;;;;;;4963400;28;20070;-84
2022/03/06 01:48:55;;;;;;;22.85;12.40;;;1.10;99.90;;;;;;4951112;28;259749;-84
2022/03/06 01:51:21;;;;;;;21.75;13.00;;;1.10;99.90;;;;;;4939212;28;20286;-84
2022/03/06 01:53:48;;;;;;;19.45;12.52;;;1.10;99.90;;;;;;4960480;28;251727;-82
2022/03/06 01:56:14;;;;;;;19.83;12.18;;;1.20;99.90;;;;;;4950664;28;20038;-83
2022/03/06 01:58:41;;;;;;;20.92;12.10;;;1.20;99.90;;;;;;5000880;28;20421;-84
2022/03/06 02:01:08;;;;;;;22.58;11.85;;;1.20;99.90;;;;;;4935904;28;240015;-84
2022/03/06 02:03:35;;;;;;;18.48;11.45;;;1.20;99.90;;;;;;4948032;28;20050;-84
2022/03/06 02:06:06;;;;;;;20.25;11.48;;;1.20;99.90;;;;;;4925243;28;132152;-83
2022/03/06 02:08:32;;;;;;;21.80;11.75;;;1.20;99.90;;;;;;4989949;28;20051;-85
2022/03/06 02:10:58;;;;;;;20.25;12.23;;;1.20;99.90;;;;;;4943759;28;20053;-84
2022/03/06 02:13:25;;;;;;;20.08;12.35;;;1.20;99.90;;;;;;4949189;28;20051;-84
2022/03/06 02:15:52;;;;;;;19.77;11.95;;;1.20;99.90;;;;;;4935457;28;221971;-84
2022/03/06 02:18:19;;;;;;;22.05;11.93;;;1.20;99.90;;;;;;4970591;28;20505;-85
2022/03/06 02:20:47;;;;;;;18.13;11.40;;;1.20;99.90;;;;;;4929355;28;78776;-85
2022/03/06 02:23:13;;;;;;;18.55;11.63;;;1.20;99.90;;;;;;4964687;28;20539;-85
2022/03/06 02:25:39;;;;;;;18.95;12.00;;;1.20;99.90;;;;;;4942261;28;82377;-85
2022/03/06 02:28:10;;;;;;;18.83;11.75;;;1.30;99.90;;;;;;4968999;28;20058;-85
2022/03/06 02:30:39;;;;;;;19.58;11.85;;;1.30;99.90;;;;;;4923767;28;111664;-85
2022/03/06 02:33:08;;;;;;;19.98;11.60;;;1.30;99.90;;;;;;4964755;28;20050;-85
2022/03/06 02:35:35;;;;;;;21.02;11.27;;;1.30;99.90;;;;;;4940582;28;149207;-85
2022/03/06 02:38:02;;;;;;;20.00;11.65;;;1.30;99.90;;;;;;4970697;28;20051;-83
2022/03/06 02:40:28;;;;;;;19.00;11.38;;;1.30;99.90;;;;;;4940838;28;147091;-85
2022/03/06 02:42:55;;;;;;;20.70;11.55;;;1.30;99.90;;;;;;4964988;28;20047;-85
2022/03/06 02:45:26;;;;;;;17.67;11.38;;;1.30;99.90;;;;;;4946117;28;246122;-86
2022/03/06 02:47:54;;;;;;;;;;;1.30;99.90;;;;;;4969271;28;20058;-85
2022/03/06 02:50:24;;;;;;;19.02;11.00;;;1.30;99.90;;;;;;4921046;28;241163;-84
2022/03/06 02:52:52;;;;;;;20.20;11.45;;;1.20;99.90;;;;;;4964182;28;20058;-86
2022/03/06 02:55:18;;;;;;;19.25;11.23;;;1.20;99.90;;;;;;4928549;28;219072;-85
2022/03/06 02:57:45;;;;;;;18.88;11.27;;;1.10;99.90;;;;;;4967055;28;20054;-85
2022/03/06 03:00:14;;;;;;;18.10;10.75;;;1.10;99.90;;;;;;4932372;28;260772;-85
2022/03/06 03:02:41;;;;;;;26.08;12.00;;;1.10;99.90;;;;;;4964954;28;20061;-85
2022/03/06 03:05:10;;;;;;;20.40;11.45;;;1.10;99.90;;;;;;4938757;28;184206;-85
2022/03/06 03:07:48;;;;;;;20.88;12.10;;;1.00;99.90;;;;;;4962823;28;20059;-85
2022/03/06 03:10:19;;;;;;;17.58;11.20;;;1.00;99.90;;;;;;4969431;28;110066;-85
2022/03/06 03:12:46;;;;;;;20.42;11.13;;;1.00;99.90;;;;;;4984136;28;20058;-85
2022/03/06 03:15:13;;;;;;;18.65;11.13;;;0.90;99.90;;;;;;4951338;28;253530;-85
2022/03/06 03:17:39;;;;;;;21.98;12.25;;;0.90;99.90;;;;;;4972237;28;20042;-84
2022/03/06 03:20:06;;;;;;;19.75;12.43;;;0.90;99.90;;;;;;4936144;28;118222;-85
2022/03/06 03:22:33;;;;;;;19.90;12.18;;;0.80;99.90;;;;;;4961224;28;20122;-84
2022/03/06 03:25:00;;;;;;;18.85;11.75;;;0.80;99.90;;;;;;4933384;28;78806;-83
2022/03/06 03:27:26;;;;;;;22.52;12.43;;;0.80;99.90;;;;;;4972374;28;20055;-84
2022/03/06 03:29:52;;;;;;;21.00;11.98;;;0.70;99.90;;;;;;4925609;28;56056;-84
2022/03/06 03:32:18;;;;;;;20.33;12.50;;;0.70;99.90;;;;;;4961405;28;20058;-83
2022/03/06 03:34:44;;;;;;;21.25;11.77;;;0.60;99.90;;;;;;4909001;28;188386;-84
2022/03/06 03:37:11;;;;;;;20.15;11.60;;;0.60;99.90;;;;;;4957951;28;20054;-84
2022/03/06 03:39:37;;;;;;;20.30;12.57;;;0.60;99.90;;;;;;4932714;28;104548;-83
2022/03/06 03:42:03;;;;;;;19.38;11.80;;;0.50;99.90;;;;;;4943518;28;20070;-85
2022/03/06 03:44:30;;;;;;;20.45;11.23;;;0.50;99.90;;;;;;4941218;28;131256;-83
2022/03/06 03:46:58;;;;;;;18.77;11.00;;;0.50;99.90;;;;;;4949478;28;20047;-83
2022/03/06 03:49:25;;;;;;;18.70;10.45;;;0.40;99.90;;;;;;4939339;28;51557;-83
2022/03/06 03:51:51;;;;;;;23.58;10.23;;;0.40;99.90;;;;;;4962091;28;20058;-84
2022/03/06 03:54:17;;;;;;;18.63;10.20;;;0.30;99.90;;;;;;4932446;28;212464;-83
2022/03/06 03:56:43;;;;;;;16.58;9.82;;;0.30;99.90;;;;;;4960331;28;20038;-84
2022/03/06 03:59:09;;;;;;;19.85;10.07;;;0.30;99.90;;;;;;4960810;28;75379;-82
2022/03/06 04:01:35;;;;;;;18.00;9.57;;;0.30;99.90;;;;;;4950448;28;20042;-83
2022/03/06 04:04:01;;;;;;;23.65;9.68;;;0.20;99.90;;;;;;4949499;28;270149;-83
2022/03/06 04:06:27;;;;;;;15.98;9.10;;;0.20;99.90;;;;;;4935332;28;20042;-82
2022/03/06 04:08:54;;;;;;;18.33;9.50;;;0.20;99.90;;;;;;4948289;28;260020;-82
2022/03/06 04:11:20;;;;;;;17.27;8.75;;;0.20;99.90;;;;;;4942971;28;20251;-82
2022/03/06 04:13:47;;;;;;;16.10;9.02;;;0.10;99.90;;;;;;4936646;28;254797;-83
2022/03/06 04:16:13;;;;;;;17.23;9.02;;;0.10;99.90;;;;;;4955948;28;20054;-83
2022/03/06 04:18:39;;;;;;;20.42;9.05;;;0.10;99.90;;;;;;4963846;28;20050;-82
2022/03/06 04:21:05;;;;;;;15.93;9.25;;;0.10;99.90;;;;;;4932679;28;253386;-83
2022/03/06 04:23:31;;;;;;;17.60;8.50;;;0.10;99.90;;;;;;4956529;28;20420;-82
2022/03/06 04:25:57;;;;;;;16.60;8.60;;;0.10;99.90;;;;;;4924667;28;72016;-82
2022/03/06 04:28:23;;;;;;;16.88;8.55;;;0.10;99.90;;;;;;4991173;28;20051;-82
2022/03/06 04:30:49;;;;;;;15.30;7.70;;;0.00;99.90;;;;;;4951413;28;162748;-83
2022/03/06 04:33:15;;;;;;;16.95;8.18;;;0.00;99.90;;;;;;4970210;28;20058;-83
2022/03/06 04:35:42;;;;;;;16.10;8.52;;;0.00;99.90;;;;;;4946425;28;273403;-80
2022/03/06 04:38:08;;;;;;;14.60;7.50;;;0.00;99.90;;;;;;4972532;28;20051;-80
2022/03/06 04:40:34;;;;;;;16.17;8.02;;;0.00;99.90;;;;;;4930216;28;124128;-82
2022/03/06 04:43:00;;;;;;;15.13;7.68;;;0.00;99.90;;;;;;4946922;28;20051;-82
2022/03/06 04:45:27;;;;;;;15.27;7.60;;;0.00;99.90;;;;;;4924587;28;25706;-82
2022/03/06 04:47:53;;;;;;;19.60;7.68;;;-0.10;99.90;;;;;;4969355;28;20050;-81
2022/03/06 04:50:19;;;;;;;16.30;7.65;;;-0.10;99.90;;;;;;4940674;28;266361;-82
2022/03/06 04:52:45;;;;;;;20.50;7.75;;;-0.10;99.90;;;;;;4971043;28;20054;-82
2022/03/06 04:55:11;;;;;;;17.88;7.93;;;-0.10;99.90;;;;;;4929236;28;162208;-82
2022/03/06 04:57:37;;;;;;;18.65;7.68;;;-0.20;99.90;;;;;;4961498;28;20066;-82
2022/03/06 05:00:06;;;;;;;18.10;8.02;;;-0.20;99.90;;;;;;4931923;28;105398;-83
2022/03/06 05:02:32;;;;;;;15.07;7.75;;;-0.30;99.90;;;;;;4977455;28;20047;-82
2022/03/06 05:04:58;;;;;;;15.02;7.53;;;-0.30;99.90;;;;;;4920064;28;268851;-82
2022/03/06 05:07:24;;;;;;;17.52;8.10;;;-0.40;99.90;;;;;;4976113;28;20059;-82
2022/03/06 05:09:50;;;;;;;20.35;8.73;;;-0.40;99.90;;;;;;4927048;28;131325;-82
2022/03/06 05:12:16;;;;;;;19.02;7.93;;;-0.50;99.90;;;;;;4958106;28;20062;-82
2022/03/06 05:14:42;;;;;;;17.80;8.65;;;-0.50;99.90;;;;;;4945716;28;249657;-82
2022/03/06 05:17:09;;;;;;;16.60;8.48;;;-0.50;99.90;;;;;;4975261;28;20071;-82
2022/03/06 05:19:35;;;;;;;21.80;8.50;;;-0.60;99.90;;;;;;4934104;28;113246;-81
2022/03/06 05:22:01;;;;;;;16.60;8.57;;;-0.60;99.90;;;;;;4962779;28;20632;-84
2022/03/06 05:24:28;;;;;;;16.42;8.70;;;-0.60;99.90;;;;;;4947278;28;36441;-82
2022/03/06 05:26:54;;;;;;;17.50;8.82;;;-0.60;99.90;;;;;;4967566;28;20073;-82
2022/03/06 05:29:20;;;;;;;21.88;8.80;;;-0.60;99.90;;;;;;4911799;28;183072;-82
2022/03/06 05:31:46;;;;;;;18.30;8.00;;;-0.60;99.90;;;;;;4965426;28;20058;-82
2022/03/06 05:34:12;;;;;;;16.17;7.75;;;-0.60;99.90;;;;;;4971963;28;49169;-82
2022/03/06 05:36:38;;;;;;;15.43;7.55;;;-0.60;99.90;;;;;;4950340;28;20090;-82
2022/03/06 05:39:04;;;;;;;16.25;7.88;;;-0.70;99.90;;;;;;4972914;28;274083;-83
2022/03/06 05:41:30;;;;;;;16.27;7.20;;;-0.70;99.90;;;;;;4955805;28;20039;-83
2022/03/06 05:43:56;;;;;;;19.02;7.22;;;-0.70;99.90;;;;;;4968800;28;264593;-81
2022/03/06 05:46:23;;;;;;;15.55;7.20;;;-0.70;99.90;;;;;;4939241;28;20053;-82
2022/03/06 05:48:49;;;;;;;14.18;7.30;;;-0.70;99.90;;;;;;4936190;28;256346;-81
2022/03/06 05:51:15;;;;;;;14.35;6.63;;;-0.70;99.90;;;;;;4940176;28;20046;-81
2022/03/06 05:53:41;;;;;;;13.98;6.60;;;-0.70;99.90;;;;;;4975092;28;20572;-81
2022/03/06 05:56:07;;;;;;;16.85;7.18;;;-0.70;99.90;;;;;;4918441;28;278080;-82
2022/03/06 05:58:34;;;;;;;14.60;6.32;;;-0.80;99.90;;;;;;4965630;28;20386;-83
2022/03/06 06:01:01;;;;;;;15.23;6.93;;;-0.80;99.90;;;;;;4956281;28;259438;-81
2022/03/06 06:03:27;;;;;;;15.13;6.35;;;-0.80;99.90;;;;;;4974624;28;20046;-82
2022/03/06 06:05:56;;;;;;;17.40;6.75;;;-0.70;99.90;;;;;;4929288;28;144087;-83
2022/03/06 06:08:22;;;;;;;16.65;6.13;;;-0.70;99.90;;;;;;4978076;28;20112;-82
2022/03/06 06:10:48;;;;;;;12.43;6.10;;;-0.80;99.90;;;;;;4955486;28;267182;-81
2022/03/06 06:13:15;;;;;;;13.57;6.10;;;-0.80;99.90;;;;;;4993695;28;20065;-82
2022/03/06 06:15:43;;;;;;;15.75;6.18;;;-0.80;99.90;;;;;;4950637;28;95624;-82
2022/03/06 06:18:12;;;;;;;13.52;6.22;;;-0.80;99.90;;;;;;4958609;28;20054;-81
2022/03/06 06:20:40;;;;;;;12.95;5.65;;;-0.80;99.90;;;;;;4945962;28;152042;-81
2022/03/06 06:23:06;;;;;;;13.65;5.80;;;-0.80;99.90;;;;;;4958477;28;20050;-82
2022/03/06 06:25:32;;;;;;;16.25;6.40;;;-0.70;99.90;;;;;;4958863;28;191089;-81
2022/03/06 06:27:58;;;;;;;12.88;5.95;;;-0.80;99.90;;;;;;4959856;28;20039;-82
2022/03/06 06:30:26;;;;;;;15.13;6.18;;;-0.70;99.90;;;;;;4936769;28;150587;-82
2022/03/06 06:32:52;;;;;;;15.77;6.50;;;-0.70;99.90;;;;;;4982620;28;20062;-82
2022/03/06 06:35:18;;;;;;;13.48;5.82;;;-0.70;99.90;;;;;;4942491;28;20233;-79
2022/03/06 06:37:44;;;;;;;15.25;6.32;;;-0.70;99.90;;;;;;4969293;28;20627;-81
2022/03/06 06:40:10;;;;;;;12.90;5.70;;;-0.70;99.90;;;;;;4941001;28;32560;-82
2022/03/06 06:42:36;;;;;;;15.35;5.97;;;-0.80;99.90;;;;;;4981146;28;20524;-82
2022/03/06 06:45:03;;;;;;;12.95;5.85;;;-0.70;99.90;;;;;;4938351;28;126294;-82
2022/03/06 06:47:29;;;;;;;13.63;5.90;;;-0.70;99.90;;;;;;4964289;28;20055;-82
2022/03/06 06:49:55;;;;;;;16.13;5.70;;;-0.70;99.90;;;;;;4949401;23;132390;-74
2022/03/06 06:52:21;;;;;;;13.85;6.00;;;-0.70;99.90;;;;;;4966089;28;20050;-74
2022/03/06 06:54:48;;;;;;;13.10;5.70;;;-0.70;99.90;;;;;;4912688;28;199005;-74
2022/03/06 06:57:14;;;;;;;14.68;5.80;;;-0.70;99.90;;;;;;4921932;28;20054;-74
2022/03/06 06:59:40;;;;;;;13.55;6.10;;;-0.70;99.90;;;;;;4926317;28;79293;-73
2022/03/06 07:02:09;;;;;;;13.45;5.82;;;-0.70;99.90;;;;;;4969924;28;20054;-73
2022/03/06 07:04:35;;;;;;;15.52;6.20;;;-0.70;99.90;;;;;;4983873;23;250311;-70
2022/03/06 07:07:02;;;;;;;11.95;5.78;;;-0.60;99.90;;;;;;4994793;28;20045;-71
2022/03/06 07:09:28;;;;;;;15.15;6.20;;;-0.60;99.90;;;;;;4979561;28;289632;-71
2022/03/06 07:11:54;;;;;;;13.25;5.70;;;-0.60;99.90;;;;;;5010646;28;20057;-71
2022/03/06 07:14:20;;;;;;;15.57;6.22;;;-0.50;99.90;;;;;;4960798;28;203330;-72
2022/03/06 07:16:46;;;;;;;12.75;5.47;;;-0.50;99.90;;;;;;4981220;28;20132;-73
2022/03/06 07:19:13;;;;;;;15.40;6.20;;;-0.50;99.90;;;;;;4984268;28;100939;-70
2022/03/06 07:21:39;;;;;;;13.43;6.13;;;-0.40;99.90;;;;;;4970833;28;20499;-72
2022/03/06 07:24:06;;;;;;;13.88;6.15;;;-0.40;99.90;;;;;;4980884;28;244647;-73
2022/03/06 07:26:33;;;;;;;12.48;5.85;;;-0.40;99.90;;;;;;4971592;28;20479;-73
2022/03/06 07:28:59;;;;;;;13.30;5.90;;;-0.30;99.90;;;;;;4984414;28;275682;-71
2022/03/06 07:31:25;;;;;;;15.40;6.57;;;-0.30;99.90;;;;;;4956753;28;20041;-71
2022/03/06 07:33:51;;;;;;;13.10;5.90;;;-0.30;99.90;;;;;;4966329;28;254969;-72
2022/03/06 07:36:17;;;;;;;13.18;6.30;;;-0.20;99.90;;;;;;4946035;28;20061;-72
2022/03/06 07:38:44;;;;;;;17.60;6.30;;;-0.10;99.90;;;;;;5018226;28;20064;-72
2022/03/06 07:41:11;;;;;;;16.00;6.07;;;-0.10;99.90;;;;;;4942375;28;20348;-72
2022/03/06 07:43:37;;;;;;;13.40;5.97;;;0.00;99.90;;;;;;5000393;28;20050;-71
2022/03/06 07:46:03;;;;;;;12.38;5.60;;;0.10;99.90;;;;;;4969894;28;253556;-70
2022/03/06 07:48:29;;;;;;;14.07;5.47;;;0.10;99.90;;;;;;5004899;28;20510;-72
2022/03/06 07:50:55;;;;;;;12.73;5.53;;;0.20;99.90;;;;;;4936830;28;50722;-72
2022/03/06 07:53:21;;;;;;;13.13;5.35;;;0.20;99.90;;;;;;5013628;28;20529;-71
2022/03/06 07:55:47;;;;;;;12.45;5.10;;;0.30;99.90;;;;;;4967719;28;278292;-72
2022/03/06 07:58:14;;;;;;;13.00;5.00;;;0.30;99.90;;;;;;4984801;28;20046;-73
2022/03/06 08:00:40;;;;;;;11.48;4.57;;;0.40;99.90;;;;;;4939170;28;188686;-72
2022/03/06 08:03:06;;;;;;;11.15;4.95;;;0.50;99.90;;;;;;4997058;28;20054;-71
2022/03/06 08:05:32;;;;;;;13.05;4.78;;;0.50;99.90;;;;;;4929086;28;196350;-72
2022/03/06 08:07:58;;;;;;;10.45;4.50;;;0.60;99.90;;;;;;4987897;28;20057;-72
2022/03/06 08:10:24;;;;;;;10.95;4.57;;;0.70;99.90;;;;;;4966120;28;259784;-71
2022/03/06 08:12:51;;;;;;;10.82;4.60;;;0.80;99.90;;;;;;5003286;28;20084;-72
2022/03/06 08:15:17;;;;;;;10.45;4.18;;;0.80;99.90;;;;;;4952256;28;252846;-72
2022/03/06 08:17:43;;;;;;;10.10;4.20;;;0.90;99.90;;;;;;4987416;28;20053;-71
2022/03/06 08:20:11;;;;;;;9.75;3.70;;;1.00;99.90;;;;;;4960636;28;264368;-73
2022/03/06 08:22:37;;;;;;;9.77;4.10;;;1.00;99.90;;;;;;4985447;28;20061;-72
2022/03/06 08:25:04;;;;;;;10.77;3.88;;;1.10;99.90;;;;;;4957149;28;74008;-71
2022/03/06 08:27:32;;;;;;;10.50;4.07;;;1.10;99.90;;;;;;4992548;28;20073;-71
2022/03/06 08:29:59;;;;;;;9.52;3.95;;;1.10;99.90;;;;;;4959437;28;278179;-71
2022/03/06 08:32:25;;;;;;;10.15;3.67;;;1.20;99.90;;;;;;4998690;28;20313;-71
2022/03/06 08:34:51;;;;;;;9.95;4.03;;;1.20;99.90;;;;;;4947004;28;23891;-71
2022/03/06 08:37:19;;;;;;;10.73;3.75;;;1.20;99.90;;;;;;4981504;28;20050;-71
2022/03/06 08:39:46;;;;;;;9.43;3.65;;;1.30;99.90;;;;;;4954204;28;270515;-72
2022/03/06 08:42:13;;;;;;;10.13;3.88;;;1.30;99.90;;;;;;5004440;28;20148;-72
2022/03/06 08:44:39;;;;;;;9.65;3.70;;;1.30;99.90;;;;;;4944066;28;99214;-69
2022/03/06 08:47:05;;;;;;;12.50;4.40;;;1.40;99.90;;;;;;5008670;28;20419;-72
2022/03/06 08:49:32;;;;;;;8.38;3.25;;;1.50;99.90;;;;;;4948270;28;258817;-72
2022/03/06 08:51:58;;;;;;;9.18;3.55;;;1.50;99.90;;;;;;5000235;28;20045;-73
2022/03/06 08:54:24;;;;;;;10.88;3.42;;;1.60;99.90;;;;;;4937454;28;152400;-73
2022/03/06 08:56:50;;;;;;;10.32;3.42;;;1.60;99.90;;;;;;5004722;28;20065;-73
2022/03/06 08:59:19;;;;;;;11.57;3.80;;;1.70;99.90;;;;;;4969300;28;266761;-71
2022/03/06 09:01:47;;;;;;;10.02;3.50;;;1.70;99.90;;;;;;4988961;28;20046;-73
2022/03/06 09:04:14;;;;;;;9.82;3.20;;;1.80;99.90;;;;;;4965545;28;253303;-72
2022/03/06 09:06:41;;;;;;;9.27;3.50;;;1.80;99.90;;;;;;4961464;28;20582;-72
2022/03/06 09:09:08;;;;;;;10.15;3.35;;;1.90;99.90;;;;;;4981836;28;264483;-73
2022/03/06 09:11:34;;;;;;;11.98;3.17;;;1.90;99.90;;;;;;4973433;28;20052;-73
2022/03/06 09:14:00;;;;;;;10.63;3.40;;;2.00;99.90;;;;;;4979569;28;260029;-73
2022/03/06 09:16:27;;;;;;;10.15;3.10;;;2.00;99.90;;;;;;4944183;28;20156;-73
2022/03/06 09:18:53;;;;;;;8.80;3.00;;;2.10;99.90;;;;;;4982945;28;263179;-73
2022/03/06 09:21:19;;;;;;;9.63;3.47;;;2.10;99.90;;;;;;4969576;28;20038;-73
2022/03/06 09:23:45;;;;;;;9.00;3.20;;;2.20;99.90;;;;;;4978370;28;279609;-72
2022/03/06 09:26:11;;;;;;;11.65;3.38;;;2.30;99.90;;;;;;4974204;28;20041;-73
2022/03/06 09:28:37;;;;;;;8.80;3.08;;;2.30;99.90;;;;;;5000690;28;20049;-73
2022/03/06 09:31:03;;;;;;;10.45;3.20;;;2.40;99.90;;;;;;4950384;28;119808;-71
2022/03/06 09:33:30;;;;;;;10.70;3.28;;;2.40;99.90;;;;;;5000234;28;20114;-72
2022/03/06 09:35:56;;;;;;;8.20;2.90;;;2.50;99.90;;;;;;4969580;28;253184;-72
2022/03/06 09:38:22;;;;;;;9.80;3.50;;;2.60;99.90;;;;;;4998129;28;20388;-72
2022/03/06 09:40:49;;;;;;;8.80;3.25;;;2.60;99.90;;;;;;4958057;28;262715;-73
2022/03/06 09:43:17;;;;;;;8.65;2.92;;;2.60;99.90;;;;;;5006750;28;20050;-72
2022/03/06 09:45:45;;;;;;;10.07;3.17;;;2.60;99.90;;;;;;4964871;28;269141;-72
2022/03/06 09:48:14;;;;;;;8.38;3.20;;;2.70;99.90;;;;;;5013058;28;20050;-73
2022/03/06 09:50:41;;;;;;;11.00;3.33;;;2.80;99.90;;;;;;4967840;28;249761;-73
2022/03/06 09:53:07;;;;;;;9.38;3.05;;;2.80;99.60;;;;;;5001139;28;20050;-73
2022/03/06 09:55:33;;;;;;;8.18;2.85;;;2.80;99.40;;;;;;4956538;28;132192;-72
2022/03/06 09:58:00;;;;;;;10.07;3.08;;;2.90;99.80;;;;;;5000818;28;20058;-72
2022/03/06 10:00:26;;;;;;;8.32;3.00;;;3.00;99.50;;;;;;4954987;28;200642;-73
2022/03/06 10:02:59;;;;;;;10.73;3.10;;;3.00;99.30;;;;;;4996776;28;20069;-73
2022/03/06 10:05:36;;;;;;;8.80;3.20;;;3.10;98.60;;;;;;4928217;28;253278;-72
2022/03/06 10:08:23;;;;;;;9.45;3.20;;;3.10;98.20;;;;;;4994926;28;20054;-73
2022/03/06 10:10:57;;;;;;;10.80;3.30;;;3.10;98.30;;;;;;4948102;28;20053;-72
2022/03/06 10:13:34;;;;;;;9.35;3.10;;;3.20;98.30;;;;;;4999007;28;20046;-73
2022/03/06 10:16:20;;;;;;;7.75;2.95;;;3.20;98.20;;;;;;4969190;28;117089;-73
2022/03/06 10:18:49;;;;;;;9.15;3.20;;;3.30;98.20;;;;;;4984211;28;267958;-73
2022/03/06 10:21:26;;;;;;;8.63;3.03;;;3.30;98.10;;;;;;4939797;28;20050;-74
2022/03/06 10:23:55;;;;;;;8.73;3.20;;;3.40;97.70;;;;;;4987165;28;260125;-73
2022/03/06 10:26:24;;;;;;;8.43;3.20;;;3.50;98.10;;;;;;4961009;28;20351;-71
2022/03/06 10:28:52;;;;;;;9.73;3.00;;;3.60;98.80;;;;;;4986654;28;268068;-72
2022/03/06 10:31:19;;;;;;;11.50;3.47;;;3.90;98.30;;;;;;4958177;28;20049;-72
2022/03/06 10:34:07;;;;;;;9.10;3.20;;;4.40;98.00;;;;;;4993718;28;268431;-71
2022/03/06 10:36:44;;;;;;;10.95;3.13;;;5.10;97.50;;;;;;4969100;28;20455;-72
2022/03/06 10:39:17;;;;;;;9.57;3.17;;;5.10;96.40;;;;;;4987924;28;281660;-71
2022/03/06 10:41:49;;;;;;;9.82;3.30;;;4.90;97.00;;;;;;4937813;28;20049;-71
2022/03/06 10:44:18;;;;;;;9.80;3.50;;;5.30;95.40;;;;;;4976742;28;111591;-71
2022/03/06 10:47:04;;;;;;;9.38;3.33;;;6.30;94.70;;;;;;4990797;28;20041;-71
2022/03/06 10:49:32;;;;;;;8.40;3.00;;;7.10;93.10;;;;;;4962041;28;88697;-73
2022/03/06 10:52:12;;;;;;;10.13;3.15;;;7.50;90.80;;;;;;5006721;28;20050;-75
2022/03/06 10:54:55;;;;;;;8.52;2.85;;;7.90;90.30;;;;;;4962217;28;243450;-74
2022/03/06 10:57:22;;;;;;;10.35;3.30;;;8.40;88.70;;;;;;5022344;28;20045;-73
2022/03/06 10:59:50;;;;;;;9.18;2.90;;;8.80;87.50;;;;;;4955966;28;271960;-75
2022/03/06 11:02:16;;;;;;;8.70;2.70;;;9.40;87.50;;;;;;4990175;28;20045;-73
2022/03/06 11:04:46;;;;;;;8.55;2.88;;;9.50;80.60;;;;;;4940161;28;214833;-72
2022/03/06 11:07:13;;;;;;;8.40;2.67;;;10.10;83.80;;;;;;4989312;28;20093;-73
2022/03/06 11:09:40;;;;;;;8.35;2.63;;;10.50;79.40;;;;;;4958463;28;266049;-74
2022/03/06 11:12:07;;;;;;;9.93;2.90;;;10.70;76.20;;;;;;4986253;28;20080;-73
2022/03/06 11:14:35;;;;;;;8.68;2.70;;;10.70;70.20;;;;;;4961111;28;259665;-73
2022/03/06 11:17:01;;;;;;;9.45;2.80;;;10.90;75.60;;;;;;4989284;28;20050;-73
2022/03/06 11:19:28;;;;;;;9.27;2.60;;;10.90;70.50;;;;;;4948759;28;262047;-74
2022/03/06 11:22:23;;;;;;;8.70;2.70;;;11.20;67.00;;;;;;5001052;28;20047;-73
2022/03/06 11:24:59;;;;;;;8.93;2.80;;;10.80;61.40;;;;;;4948763;28;255218;-73
2022/03/06 11:27:43;;;;;;;9.02;2.95;;;10.80;62.50;;;;;;4998098;28;20719;-72
2022/03/06 11:30:18;;;;;;;8.38;2.60;;;10.90;64.60;;;;;;4953870;28;238076;-73
2022/03/06 11:32:47;;;;;;;8.85;2.88;;;11.20;62.00;;;;;;4993144;28;20511;-74
2022/03/06 11:35:16;;;;;;;9.18;2.70;;;11.40;64.30;;;;;;4945133;28;103962;-73
2022/03/06 11:37:48;;;;;;;8.55;2.95;;;11.90;60.10;;;;;;5005250;28;20038;-74
2022/03/06 11:40:37;;;;;;;8.57;2.80;;;12.40;61.00;;;;;;4953320;28;251591;-73
2022/03/06 11:43:05;;;;;;;8.50;2.85;;;12.40;58.40;;;;;;5004381;28;20484;-74
2022/03/06 11:45:44;;;;;;;8.77;2.67;;;12.50;58.40;;;;;;4959682;28;266816;-74
2022/03/06 11:48:33;;;;;;;9.95;3.03;;;13.10;60.50;;;;;;5002749;28;20046;-73
2022/03/06 11:51:14;;;;;;;8.63;2.85;;;13.40;57.00;;;;;;4956891;28;264369;-73
2022/03/06 11:53:51;;;;;;;;;;;13.70;54.90;;;;;;4997829;28;20065;-73
2022/03/06 11:56:35;;;;;;;9.82;2.58;;;14.10;52.40;;;;;;4936362;28;20366;-73
2022/03/06 11:59:16;;;;;;;8.43;2.90;;;12.70;51.30;;;;;;4992641;28;254828;-73
2022/03/06 12:01:45;;;;;;;7.68;2.78;;;11.70;52.50;;;;;;4959079;28;20053;-73
2022/03/06 12:04:16;;;;;;;11.00;2.70;;;10.90;55.00;;;;;;4972213;28;206640;-72
2022/03/06 12:06:42;;;;;;;10.75;3.10;;;11.20;55.90;;;;;;4938298;28;20038;-74
2022/03/06 12:09:17;;;;;;;8.95;2.88;;;10.60;55.70;;;;;;4988779;28;201081;-72
2022/03/06 12:11:45;;;;;;;8.35;2.83;;;10.80;56.60;;;;;;4960329;28;20357;-72
2022/03/06 12:14:22;;;;;;;8.77;2.72;;;10.60;57.00;;;;;;4985387;28;278936;-73
2022/03/06 12:17:00;;;;;;;11.45;3.10;;;10.90;56.00;;;;;;4947582;28;20555;-73
2022/03/06 12:19:47;;;;;;;8.55;3.00;;;11.60;55.40;;;;;;4957590;28;89874;-73
2022/03/06 12:22:28;;;;;;;8.23;2.85;;;11.90;53.80;;;;;;4999587;28;20053;-73
2022/03/06 12:25:06;;;;;;;9.77;2.97;;;12.50;54.70;;;;;;4954729;28;256488;-73
2022/03/06 12:27:33;;;;;;;9.65;2.90;;;12.30;52.60;;;;;;4986599;28;20062;-73
2022/03/06 12:30:02;;;;;;;10.13;3.20;;;11.00;53.40;;;;;;4933703;28;186275;-75
2022/03/06 12:32:31;;;;;;;9.20;3.05;;;11.90;55.90;;;;;;4984242;28;20061;-72
2022/03/06 12:35:17;;;;;;;9.80;3.13;;;12.30;52.70;;;;;;4939236;28;20050;-73
2022/03/06 12:37:52;;;;;;;8.02;2.83;;;12.30;52.70;;;;;;4983964;28;20041;-74
2022/03/06 12:40:21;;;;;;;8.05;2.55;;;12.80;53.10;;;;;;4964918;28;275442;-73
2022/03/06 12:42:51;;;;;;;8.05;2.58;;;13.30;54.10;;;;;;5004642;28;20057;-74